Terminal Aerodrome Forecast
Issued by NWS

Home | Current Version | Previous Version | Graphics & Text | Print | Product List | Glossary On
Versions: 1 2 3 4 5 6 7 8 9 10 11 12 13 14 15 16 17 18
340
FTUS41 KCLE 222329
TAFFDY
TAF
KFDY 222329Z 2300/2324 VRB03KT P6SM SKC
     FM230600 VRB02KT P6SM SKC
     FM231500 28007KT P6SM SKC=

USA.gov is the U.S. government's official web portal to all federal, state and local government web resources and services.